sensor_id;sensor_type;location;lat;lon;timestamp;P1;durP1;ratioP1;P2;durP2;ratioP2
9330;SDS011;4704;50.470;12.072;2022-12-11T00:01:55;8.02;;;7.43;;
9330;SDS011;4704;50.470;12.072;2022-12-11T00:04:22;8.00;;;7.30;;
9330;SDS011;4704;50.470;12.072;2022-12-11T00:06:50;8.13;;;7.53;;
9330;SDS011;4704;50.470;12.072;2022-12-11T00:09:19;7.40;;;6.72;;
9330;SDS011;4704;50.470;12.072;2022-12-11T00:11:47;7.50;;;6.85;;
9330;SDS011;4704;50.470;12.072;2022-12-11T00:14:15;7.38;;;6.78;;
9330;SDS011;4704;50.470;12.072;2022-12-11T00:16:43;7.95;;;7.25;;
9330;SDS011;4704;50.470;12.072;2022-12-11T00:19:11;6.78;;;6.28;;
9330;SDS011;4704;50.470;12.072;2022-12-11T00:21:39;7.10;;;6.50;;
9330;SDS011;4704;50.470;12.072;2022-12-11T00:24:07;6.90;;;6.30;;
9330;SDS011;4704;50.470;12.072;2022-12-11T00:26:36;7.25;;;6.65;;
9330;SDS011;4704;50.470;12.072;2022-12-11T00:29:04;6.90;;;6.40;;
9330;SDS011;4704;50.470;12.072;2022-12-11T00:31:33;6.88;;;6.32;;
9330;SDS011;4704;50.470;12.072;2022-12-11T00:34:01;6.70;;;6.10;;
9330;SDS011;4704;50.470;12.072;2022-12-11T00:36:31;6.65;;;6.05;;
9330;SDS011;4704;50.470;12.072;2022-12-11T00:39:00;6.43;;;5.88;;
9330;SDS011;4704;50.470;12.072;2022-12-11T00:41:28;6.22;;;5.72;;
9330;SDS011;4704;50.470;12.072;2022-12-11T00:43:57;5.82;;;5.32;;
9330;SDS011;4704;50.470;12.072;2022-12-11T00:46:25;6.40;;;5.80;;
9330;SDS011;4704;50.470;12.072;2022-12-11T00:48:53;6.13;;;5.63;;
9330;SDS011;4704;50.470;12.072;2022-12-11T00:51:21;5.70;;;5.20;;
9330;SDS011;4704;50.470;12.072;2022-12-11T00:53:50;5.63;;;5.13;;
9330;SDS011;4704;50.470;12.072;2022-12-11T00:56:18;5.75;;;5.25;;
9330;SDS011;4704;50.470;12.072;2022-12-11T00:58:47;5.35;;;4.95;;
9330;SDS011;4704;50.470;12.072;2022-12-11T01:01:17;5.47;;;5.07;;
9330;SDS011;4704;50.470;12.072;2022-12-11T01:03:45;5.28;;;4.88;;
9330;SDS011;4704;50.470;12.072;2022-12-11T01:06:13;5.35;;;4.95;;
9330;SDS011;4704;50.470;12.072;2022-12-11T01:08:42;4.95;;;4.55;;
9330;SDS011;4704;50.470;12.072;2022-12-11T01:11:11;5.05;;;4.65;;
9330;SDS011;4704;50.470;12.072;2022-12-11T01:13:38;5.22;;;4.82;;
9330;SDS011;4704;50.470;12.072;2022-12-11T01:16:07;4.93;;;4.53;;
9330;SDS011;4704;50.470;12.072;2022-12-11T01:18:36;4.68;;;4.28;;
9330;SDS011;4704;50.470;12.072;2022-12-11T01:21:05;4.80;;;4.40;;
9330;SDS011;4704;50.470;12.072;2022-12-11T01:23:32;4.35;;;4.05;;
9330;SDS011;4704;50.470;12.072;2022-12-11T01:26:04;4.60;;;4.30;;
9330;SDS011;4704;50.470;12.072;2022-12-11T01:28:32;4.78;;;4.38;;
9330;SDS011;4704;50.470;12.072;2022-12-11T01:31:00;4.55;;;4.18;;
9330;SDS011;4704;50.470;12.072;2022-12-11T01:33:28;4.38;;;3.97;;
9330;SDS011;4704;50.470;12.072;2022-12-11T01:35:57;4.80;;;4.40;;
9330;SDS011;4704;50.470;12.072;2022-12-11T01:38:25;4.50;;;4.15;;
9330;SDS011;4704;50.470;12.072;2022-12-11T01:40:53;4.45;;;4.13;;
9330;SDS011;4704;50.470;12.072;2022-12-11T01:43:21;4.32;;;4.03;;
9330;SDS011;4704;50.470;12.072;2022-12-11T01:45:49;4.55;;;4.22;;
9330;SDS011;4704;50.470;12.072;2022-12-11T01:48:18;4.20;;;3.90;;
9330;SDS011;4704;50.470;12.072;2022-12-11T01:50:47;4.35;;;4.05;;
9330;SDS011;4704;50.470;12.072;2022-12-11T01:53:18;4.00;;;3.70;;
9330;SDS011;4704;50.470;12.072;2022-12-11T01:55:47;4.18;;;3.88;;
9330;SDS011;4704;50.470;12.072;2022-12-11T01:58:17;4.10;;;3.80;;
9330;SDS011;4704;50.470;12.072;2022-12-11T02:00:47;3.83;;;3.53;;
9330;SDS011;4704;50.470;12.072;2022-12-11T02:03:15;3.80;;;3.50;;
9330;SDS011;4704;50.470;12.072;2022-12-11T02:05:42;4.10;;;3.80;;
9330;SDS011;4704;50.470;12.072;2022-12-11T02:08:10;3.97;;;3.67;;
9330;SDS011;4704;50.470;12.072;2022-12-11T02:10:43;4.15;;;3.75;;
9330;SDS011;4704;50.470;12.072;2022-12-11T02:13:13;6.18;;;5.57;;
9330;SDS011;4704;50.470;12.072;2022-12-11T02:15:45;5.25;;;4.75;;
9330;SDS011;4704;50.470;12.072;2022-12-11T02:18:16;4.80;;;4.50;;
9330;SDS011;4704;50.470;12.072;2022-12-11T02:20:47;5.00;;;4.55;;
9330;SDS011;4704;50.470;12.072;2022-12-11T02:23:26;5.00;;;4.60;;
9330;SDS011;4704;50.470;12.072;2022-12-11T02:26:04;4.80;;;4.40;;
9330;SDS011;4704;50.470;12.072;2022-12-11T02:28:36;4.95;;;4.55;;
9330;SDS011;4704;50.470;12.072;2022-12-11T02:31:05;4.70;;;4.30;;
9330;SDS011;4704;50.470;12.072;2022-12-11T02:33:38;4.97;;;4.57;;
9330;SDS011;4704;50.470;12.072;2022-12-11T02:36:08;4.93;;;4.43;;
9330;SDS011;4704;50.470;12.072;2022-12-11T02:38:37;4.72;;;4.32;;
9330;SDS011;4704;50.470;12.072;2022-12-11T02:41:06;4.90;;;4.60;;
9330;SDS011;4704;50.470;12.072;2022-12-11T02:43:35;4.68;;;4.28;;
9330;SDS011;4704;50.470;12.072;2022-12-11T02:46:05;4.40;;;4.10;;
9330;SDS011;4704;50.470;12.072;2022-12-11T02:48:33;4.47;;;4.07;;
9330;SDS011;4704;50.470;12.072;2022-12-11T02:51:02;4.38;;;4.07;;
9330;SDS011;4704;50.470;12.072;2022-12-11T02:53:31;4.60;;;4.20;;
9330;SDS011;4704;50.470;12.072;2022-12-11T02:56:02;4.47;;;4.10;;
9330;SDS011;4704;50.470;12.072;2022-12-11T02:58:33;4.72;;;4.32;;
9330;SDS011;4704;50.470;12.072;2022-12-11T03:01:05;4.50;;;4.18;;
9330;SDS011;4704;50.470;12.072;2022-12-11T03:03:33;4.78;;;4.38;;
9330;SDS011;4704;50.470;12.072;2022-12-11T03:06:01;4.43;;;4.13;;
9330;SDS011;4704;50.470;12.072;2022-12-11T03:08:29;4.13;;;3.83;;
9330;SDS011;4704;50.470;12.072;2022-12-11T03:10:56;4.53;;;4.22;;
9330;SDS011;4704;50.470;12.072;2022-12-11T03:13:24;3.97;;;3.67;;
9330;SDS011;4704;50.470;12.072;2022-12-11T03:15:56;4.05;;;3.75;;
9330;SDS011;4704;50.470;12.072;2022-12-11T03:18:28;4.40;;;4.00;;
9330;SDS011;4704;50.470;12.072;2022-12-11T03:21:00;4.22;;;3.92;;
9330;SDS011;4704;50.470;12.072;2022-12-11T03:23:29;4.22;;;3.92;;
9330;SDS011;4704;50.470;12.072;2022-12-11T03:26:00;4.47;;;4.10;;
9330;SDS011;4704;50.470;12.072;2022-12-11T03:28:30;3.78;;;3.47;;
9330;SDS011;4704;50.470;12.072;2022-12-11T03:31:00;3.67;;;3.38;;
9330;SDS011;4704;50.470;12.072;2022-12-11T03:33:31;3.80;;;3.50;;
9330;SDS011;4704;50.470;12.072;2022-12-11T03:36:02;3.92;;;3.63;;
9330;SDS011;4704;50.470;12.072;2022-12-11T03:38:32;3.80;;;3.50;;
9330;SDS011;4704;50.470;12.072;2022-12-11T03:41:00;4.13;;;3.83;;
9330;SDS011;4704;50.470;12.072;2022-12-11T03:43:29;4.22;;;3.92;;
9330;SDS011;4704;50.470;12.072;2022-12-11T03:45:57;3.67;;;3.38;;
9330;SDS011;4704;50.470;12.072;2022-12-11T03:48:26;3.40;;;3.20;;
9330;SDS011;4704;50.470;12.072;2022-12-11T03:50:56;3.92;;;3.63;;
9330;SDS011;4704;50.470;12.072;2022-12-11T03:53:25;3.70;;;3.40;;
9330;SDS011;4704;50.470;12.072;2022-12-11T03:55:53;3.80;;;3.50;;
9330;SDS011;4704;50.470;12.072;2022-12-11T03:58:24;3.70;;;3.40;;
9330;SDS011;4704;50.470;12.072;2022-12-11T04:00:51;3.65;;;3.35;;
9330;SDS011;4704;50.470;12.072;2022-12-11T04:03:19;3.38;;;3.08;;
9330;SDS011;4704;50.470;12.072;2022-12-11T04:05:48;3.70;;;3.40;;
9330;SDS011;4704;50.470;12.072;2022-12-11T04:08:18;3.33;;;3.03;;
9330;SDS011;4704;50.470;12.072;2022-12-11T04:10:46;3.83;;;3.53;;
9330;SDS011;4704;50.470;12.072;2022-12-11T04:13:33;3.50;;;3.20;;
9330;SDS011;4704;50.470;12.072;2022-12-11T04:16:01;3.80;;;3.50;;
9330;SDS011;4704;50.470;12.072;2022-12-11T04:18:28;3.72;;;3.42;;
9330;SDS011;4704;50.470;12.072;2022-12-11T04:21:13;3.65;;;3.35;;
9330;SDS011;4704;50.470;12.072;2022-12-11T04:23:59;3.58;;;3.28;;
9330;SDS011;4704;50.470;12.072;2022-12-11T04:26:43;3.58;;;3.35;;
9330;SDS011;4704;50.470;12.072;2022-12-11T04:29:11;3.60;;;3.30;;
9330;SDS011;4704;50.470;12.072;2022-12-11T04:31:39;3.65;;;3.35;;
9330;SDS011;4704;50.470;12.072;2022-12-11T04:34:06;3.70;;;3.40;;
9330;SDS011;4704;50.470;12.072;2022-12-11T04:36:34;3.88;;;3.58;;
9330;SDS011;4704;50.470;12.072;2022-12-11T04:39:03;3.60;;;3.30;;
9330;SDS011;4704;50.470;12.072;2022-12-11T04:41:32;3.60;;;3.30;;
9330;SDS011;4704;50.470;12.072;2022-12-11T04:44:00;3.63;;;3.33;;
9330;SDS011;4704;50.470;12.072;2022-12-11T04:46:27;4.00;;;3.70;;
9330;SDS011;4704;50.470;12.072;2022-12-11T04:48:55;3.72;;;3.42;;
9330;SDS011;4704;50.470;12.072;2022-12-11T04:51:24;3.75;;;3.45;;
9330;SDS011;4704;50.470;12.072;2022-12-11T04:53:52;4.00;;;3.70;;
9330;SDS011;4704;50.470;12.072;2022-12-11T04:56:22;3.65;;;3.35;;
9330;SDS011;4704;50.470;12.072;2022-12-11T04:58:49;4.28;;;3.95;;
9330;SDS011;4704;50.470;12.072;2022-12-11T05:01:18;3.58;;;3.28;;
9330;SDS011;4704;50.470;12.072;2022-12-11T05:03:46;3.55;;;3.25;;
9330;SDS011;4704;50.470;12.072;2022-12-11T05:06:13;3.85;;;3.55;;
9330;SDS011;4704;50.470;12.072;2022-12-11T05:08:41;3.72;;;3.38;;
9330;SDS011;4704;50.470;12.072;2022-12-11T05:11:10;3.60;;;3.30;;
9330;SDS011;4704;50.470;12.072;2022-12-11T05:13:39;3.35;;;3.08;;
9330;SDS011;4704;50.470;12.072;2022-12-11T05:16:07;3.88;;;3.58;;
9330;SDS011;4704;50.470;12.072;2022-12-11T05:18:35;3.60;;;3.30;;
9330;SDS011;4704;50.470;12.072;2022-12-11T05:21:03;3.80;;;3.50;;
9330;SDS011;4704;50.470;12.072;2022-12-11T05:23:30;3.60;;;3.30;;
9330;SDS011;4704;50.470;12.072;2022-12-11T05:25:59;3.63;;;3.33;;
9330;SDS011;4704;50.470;12.072;2022-12-11T05:28:27;4.00;;;3.70;;
9330;SDS011;4704;50.470;12.072;2022-12-11T05:30:57;3.35;;;3.15;;
9330;SDS011;4704;50.470;12.072;2022-12-11T05:33:24;4.28;;;3.88;;
9330;SDS011;4704;50.470;12.072;2022-12-11T05:35:52;3.60;;;3.30;;
9330;SDS011;4704;50.470;12.072;2022-12-11T05:38:19;3.45;;;3.15;;
9330;SDS011;4704;50.470;12.072;2022-12-11T05:40:53;3.75;;;3.45;;
9330;SDS011;4704;50.470;12.072;2022-12-11T05:43:21;3.70;;;3.40;;
9330;SDS011;4704;50.470;12.072;2022-12-11T05:45:48;3.67;;;3.38;;
9330;SDS011;4704;50.470;12.072;2022-12-11T05:48:17;3.90;;;3.60;;
9330;SDS011;4704;50.470;12.072;2022-12-11T05:50:54;3.85;;;3.55;;
9330;SDS011;4704;50.470;12.072;2022-12-11T05:53:22;3.97;;;3.67;;
9330;SDS011;4704;50.470;12.072;2022-12-11T05:55:49;3.80;;;3.50;;
9330;SDS011;4704;50.470;12.072;2022-12-11T05:58:17;3.72;;;3.42;;
9330;SDS011;4704;50.470;12.072;2022-12-11T06:00:44;3.65;;;3.35;;
9330;SDS011;4704;50.470;12.072;2022-12-11T06:03:12;3.83;;;3.53;;
9330;SDS011;4704;50.470;12.072;2022-12-11T06:05:41;3.90;;;3.60;;
9330;SDS011;4704;50.470;12.072;2022-12-11T06:08:09;4.20;;;3.90;;
9330;SDS011;4704;50.470;12.072;2022-12-11T06:10:36;4.00;;;3.70;;
9330;SDS011;4704;50.470;12.072;2022-12-11T06:13:04;3.83;;;3.53;;
9330;SDS011;4704;50.470;12.072;2022-12-11T06:15:31;3.67;;;3.38;;
9330;SDS011;4704;50.470;12.072;2022-12-11T06:17:58;3.90;;;3.60;;
9330;SDS011;4704;50.470;12.072;2022-12-11T06:20:26;3.72;;;3.40;;
9330;SDS011;4704;50.470;12.072;2022-12-11T06:22:55;3.78;;;3.47;;
9330;SDS011;4704;50.470;12.072;2022-12-11T06:25:22;4.00;;;3.70;;
9330;SDS011;4704;50.470;12.072;2022-12-11T06:27:50;3.65;;;3.35;;
9330;SDS011;4704;50.470;12.072;2022-12-11T06:30:17;3.85;;;3.55;;
9330;SDS011;4704;50.470;12.072;2022-12-11T06:32:45;4.00;;;3.70;;
9330;SDS011;4704;50.470;12.072;2022-12-11T06:35:12;3.92;;;3.63;;
9330;SDS011;4704;50.470;12.072;2022-12-11T06:37:40;3.90;;;3.60;;
9330;SDS011;4704;50.470;12.072;2022-12-11T06:40:09;3.97;;;3.67;;
9330;SDS011;4704;50.470;12.072;2022-12-11T06:42:37;4.00;;;3.70;;
9330;SDS011;4704;50.470;12.072;2022-12-11T06:45:05;4.05;;;3.75;;
9330;SDS011;4704;50.470;12.072;2022-12-11T06:47:33;3.60;;;3.30;;
9330;SDS011;4704;50.470;12.072;2022-12-11T06:50:00;3.67;;;3.38;;
9330;SDS011;4704;50.470;12.072;2022-12-11T06:52:27;3.75;;;3.45;;
9330;SDS011;4704;50.470;12.072;2022-12-11T06:54:55;3.90;;;3.60;;
9330;SDS011;4704;50.470;12.072;2022-12-11T06:57:24;3.97;;;3.67;;
9330;SDS011;4704;50.470;12.072;2022-12-11T06:59:51;4.10;;;3.78;;
9330;SDS011;4704;50.470;12.072;2022-12-11T07:02:19;3.90;;;3.60;;
9330;SDS011;4704;50.470;12.072;2022-12-11T07:04:47;3.72;;;3.42;;
9330;SDS011;4704;50.470;12.072;2022-12-11T07:07:14;3.70;;;3.40;;
9330;SDS011;4704;50.470;12.072;2022-12-11T07:09:44;3.90;;;3.60;;
9330;SDS011;4704;50.470;12.072;2022-12-11T07:12:11;4.07;;;3.78;;
9330;SDS011;4704;50.470;12.072;2022-12-11T07:14:40;3.60;;;3.30;;
9330;SDS011;4704;50.470;12.072;2022-12-11T07:17:07;3.58;;;3.28;;
9330;SDS011;4704;50.470;12.072;2022-12-11T07:19:35;3.85;;;3.55;;
9330;SDS011;4704;50.470;12.072;2022-12-11T07:22:02;4.05;;;3.75;;
9330;SDS011;4704;50.470;12.072;2022-12-11T07:24:30;3.60;;;3.30;;
9330;SDS011;4704;50.470;12.072;2022-12-11T07:26:58;4.07;;;3.78;;
9330;SDS011;4704;50.470;12.072;2022-12-11T07:29:25;3.90;;;3.60;;
9330;SDS011;4704;50.470;12.072;2022-12-11T07:31:54;4.00;;;3.70;;
9330;SDS011;4704;50.470;12.072;2022-12-11T07:34:22;3.83;;;3.53;;
9330;SDS011;4704;50.470;12.072;2022-12-11T07:36:49;4.07;;;3.78;;
9330;SDS011;4704;50.470;12.072;2022-12-11T07:39:17;3.90;;;3.60;;
9330;SDS011;4704;50.470;12.072;2022-12-11T07:41:44;3.63;;;3.33;;
9330;SDS011;4704;50.470;12.072;2022-12-11T07:44:12;3.92;;;3.63;;
9330;SDS011;4704;50.470;12.072;2022-12-11T07:46:40;3.78;;;3.47;;
9330;SDS011;4704;50.470;12.072;2022-12-11T07:49:09;3.47;;;3.17;;
9330;SDS011;4704;50.470;12.072;2022-12-11T07:51:36;3.78;;;3.45;;
9330;SDS011;4704;50.470;12.072;2022-12-11T07:54:04;3.55;;;3.25;;
9330;SDS011;4704;50.470;12.072;2022-12-11T07:56:32;3.45;;;3.15;;
9330;SDS011;4704;50.470;12.072;2022-12-11T07:59:01;3.50;;;3.20;;
9330;SDS011;4704;50.470;12.072;2022-12-11T08:01:29;4.05;;;3.75;;
9330;SDS011;4704;50.470;12.072;2022-12-11T08:03:57;4.10;;;3.80;;
9330;SDS011;4704;50.470;12.072;2022-12-11T08:06:27;5.57;;;5.07;;
9330;SDS011;4704;50.470;12.072;2022-12-11T08:08:55;5.32;;;4.82;;
9330;SDS011;4704;50.470;12.072;2022-12-11T08:11:22;5.32;;;4.93;;
9330;SDS011;4704;50.470;12.072;2022-12-11T08:13:50;4.68;;;4.28;;
9330;SDS011;4704;50.470;12.072;2022-12-11T08:16:18;5.32;;;4.78;;
9330;SDS011;4704;50.470;12.072;2022-12-11T08:18:45;5.40;;;4.90;;
9330;SDS011;4704;50.470;12.072;2022-12-11T08:21:14;5.68;;;5.18;;
9330;SDS011;4704;50.470;12.072;2022-12-11T08:23:43;5.60;;;5.10;;
9330;SDS011;4704;50.470;12.072;2022-12-11T08:26:10;5.70;;;5.20;;
9330;SDS011;4704;50.470;12.072;2022-12-11T08:28:39;5.28;;;4.82;;
9330;SDS011;4704;50.470;12.072;2022-12-11T08:31:07;6.97;;;4.75;;
9330;SDS011;4704;50.470;12.072;2022-12-11T08:33:35;5.75;;;5.25;;
9330;SDS011;4704;50.470;12.072;2022-12-11T08:36:03;5.70;;;5.20;;
9330;SDS011;4704;50.470;12.072;2022-12-11T08:38:31;5.70;;;5.07;;
9330;SDS011;4704;50.470;12.072;2022-12-11T08:41:07;5.53;;;5.03;;
9330;SDS011;4704;50.470;12.072;2022-12-11T08:43:35;5.40;;;4.78;;
9330;SDS011;4704;50.470;12.072;2022-12-11T08:46:03;5.45;;;4.97;;
9330;SDS011;4704;50.470;12.072;2022-12-11T08:48:31;5.15;;;4.65;;
9330;SDS011;4704;50.470;12.072;2022-12-11T08:50:58;6.13;;;4.40;;
9330;SDS011;4704;50.470;12.072;2022-12-11T08:53:27;4.90;;;4.30;;
9330;SDS011;4704;50.470;12.072;2022-12-11T08:55:59;5.03;;;4.53;;
9330;SDS011;4704;50.470;12.072;2022-12-11T08:58:28;5.25;;;4.15;;
9330;SDS011;4704;50.470;12.072;2022-12-11T09:00:56;4.88;;;4.47;;
9330;SDS011;4704;50.470;12.072;2022-12-11T09:03:23;4.95;;;4.53;;
9330;SDS011;4704;50.470;12.072;2022-12-11T09:05:51;4.75;;;4.30;;
9330;SDS011;4704;50.470;12.072;2022-12-11T09:08:18;5.10;;;4.40;;
9330;SDS011;4704;50.470;12.072;2022-12-11T09:10:46;4.35;;;3.95;;
9330;SDS011;4704;50.470;12.072;2022-12-11T09:13:13;4.38;;;3.97;;
9330;SDS011;4704;50.470;12.072;2022-12-11T09:15:42;8.18;;;7.47;;
9330;SDS011;4704;50.470;12.072;2022-12-11T09:18:09;12.55;;;11.35;;
9330;SDS011;4704;50.470;12.072;2022-12-11T09:20:37;11.45;;;10.45;;
9330;SDS011;4704;50.470;12.072;2022-12-11T09:23:04;9.50;;;8.70;;
9330;SDS011;4704;50.470;12.072;2022-12-11T09:25:32;9.18;;;8.38;;
9330;SDS011;4704;50.470;12.072;2022-12-11T09:27:59;9.15;;;8.35;;
9330;SDS011;4704;50.470;12.072;2022-12-11T09:30:26;9.32;;;8.52;;
9330;SDS011;4704;50.470;12.072;2022-12-11T09:32:55;9.00;;;8.27;;
9330;SDS011;4704;50.470;12.072;2022-12-11T09:35:23;8.93;;;8.13;;
9330;SDS011;4704;50.470;12.072;2022-12-11T09:37:50;8.52;;;7.82;;
9330;SDS011;4704;50.470;12.072;2022-12-11T09:40:17;7.53;;;6.93;;
9330;SDS011;4704;50.470;12.072;2022-12-11T09:42:47;7.97;;;7.28;;
9330;SDS011;4704;50.470;12.072;2022-12-11T09:45:15;7.28;;;6.68;;
9330;SDS011;4704;50.470;12.072;2022-12-11T09:47:43;7.47;;;6.78;;
9330;SDS011;4704;50.470;12.072;2022-12-11T09:50:16;7.65;;;6.97;;
9330;SDS011;4704;50.470;12.072;2022-12-11T09:52:48;6.85;;;6.15;;
9330;SDS011;4704;50.470;12.072;2022-12-11T09:55:20;6.72;;;6.13;;
9330;SDS011;4704;50.470;12.072;2022-12-11T09:57:50;6.35;;;5.80;;
9330;SDS011;4704;50.470;12.072;2022-12-11T10:00:23;5.97;;;5.47;;
9330;SDS011;4704;50.470;12.072;2022-12-11T10:03:06;6.30;;;5.80;;
9330;SDS011;4704;50.470;12.072;2022-12-11T10:05:39;6.90;;;5.70;;
9330;SDS011;4704;50.470;12.072;2022-12-11T10:08:12;5.45;;;5.05;;
9330;SDS011;4704;50.470;12.072;2022-12-11T10:10:42;5.63;;;5.18;;
9330;SDS011;4704;50.470;12.072;2022-12-11T10:13:13;5.35;;;4.95;;
9330;SDS011;4704;50.470;12.072;2022-12-11T10:15:45;5.70;;;5.20;;
9330;SDS011;4704;50.470;12.072;2022-12-11T10:18:16;6.15;;;5.32;;
9330;SDS011;4704;50.470;12.072;2022-12-11T10:20:49;5.68;;;5.18;;
9330;SDS011;4704;50.470;12.072;2022-12-11T10:23:17;5.95;;;5.45;;
9330;SDS011;4704;50.470;12.072;2022-12-11T10:25:48;7.63;;;5.70;;
9330;SDS011;4704;50.470;12.072;2022-12-11T10:28:17;6.63;;;5.35;;
9330;SDS011;4704;50.470;12.072;2022-12-11T10:30:47;5.40;;;4.70;;
9330;SDS011;4704;50.470;12.072;2022-12-11T10:33:17;5.70;;;4.90;;
9330;SDS011;4704;50.470;12.072;2022-12-11T10:35:49;7.57;;;5.55;;
9330;SDS011;4704;50.470;12.072;2022-12-11T10:38:19;5.82;;;4.82;;
9330;SDS011;4704;50.470;12.072;2022-12-11T10:40:48;7.15;;;5.45;;
9330;SDS011;4704;50.470;12.072;2022-12-11T10:43:16;6.82;;;5.30;;
9330;SDS011;4704;50.470;12.072;2022-12-11T10:45:51;7.32;;;5.13;;
9330;SDS011;4704;50.470;12.072;2022-12-11T10:48:19;5.90;;;5.30;;
9330;SDS011;4704;50.470;12.072;2022-12-11T10:50:56;5.47;;;4.72;;
9330;SDS011;4704;50.470;12.072;2022-12-11T10:53:24;5.68;;;4.60;;
9330;SDS011;4704;50.470;12.072;2022-12-11T10:55:52;8.95;;;4.80;;
9330;SDS011;4704;50.470;12.072;2022-12-11T10:58:20;6.53;;;5.00;;
9330;SDS011;4704;50.470;12.072;2022-12-11T11:01:02;6.30;;;4.93;;
9330;SDS011;4704;50.470;12.072;2022-12-11T11:03:30;5.35;;;4.82;;
9330;SDS011;4704;50.470;12.072;2022-12-11T11:06:11;5.25;;;4.75;;
9330;SDS011;4704;50.470;12.072;2022-12-11T11:08:40;6.97;;;4.68;;
9330;SDS011;4704;50.470;12.072;2022-12-11T11:11:14;5.10;;;4.32;;
9330;SDS011;4704;50.470;12.072;2022-12-11T11:13:42;5.40;;;4.38;;
9330;SDS011;4704;50.470;12.072;2022-12-11T11:16:12;5.45;;;4.53;;
9330;SDS011;4704;50.470;12.072;2022-12-11T11:18:40;7.85;;;6.82;;
9330;SDS011;4704;50.470;12.072;2022-12-11T11:21:16;7.40;;;6.45;;
9330;SDS011;4704;50.470;12.072;2022-12-11T11:23:44;6.78;;;5.70;;
9330;SDS011;4704;50.470;12.072;2022-12-11T11:26:11;6.68;;;6.00;;
9330;SDS011;4704;50.470;12.072;2022-12-11T11:28:40;7.22;;;5.28;;
9330;SDS011;4704;50.470;12.072;2022-12-11T11:31:09;5.72;;;5.13;;
9330;SDS011;4704;50.470;12.072;2022-12-11T11:33:43;6.45;;;5.32;;
9330;SDS011;4704;50.470;12.072;2022-12-11T11:36:18;6.05;;;5.35;;
9330;SDS011;4704;50.470;12.072;2022-12-11T11:38:46;8.00;;;5.60;;
9330;SDS011;4704;50.470;12.072;2022-12-11T11:41:16;5.35;;;4.82;;
9330;SDS011;4704;50.470;12.072;2022-12-11T11:43:46;5.45;;;4.95;;
9330;SDS011;4704;50.470;12.072;2022-12-11T11:46:16;5.38;;;4.78;;
9330;SDS011;4704;50.470;12.072;2022-12-11T11:48:49;5.80;;;5.20;;
9330;SDS011;4704;50.470;12.072;2022-12-11T11:51:22;5.10;;;4.60;;
9330;SDS011;4704;50.470;12.072;2022-12-11T11:53:51;5.03;;;4.45;;
9330;SDS011;4704;50.470;12.072;2022-12-11T11:56:21;5.38;;;4.88;;
9330;SDS011;4704;50.470;12.072;2022-12-11T11:58:51;5.30;;;4.72;;
9330;SDS011;4704;50.470;12.072;2022-12-11T12:01:20;5.15;;;4.65;;
9330;SDS011;4704;50.470;12.072;2022-12-11T12:03:48;5.65;;;4.95;;
9330;SDS011;4704;50.470;12.072;2022-12-11T12:06:18;8.38;;;7.55;;
9330;SDS011;4704;50.470;12.072;2022-12-11T12:08:50;10.05;;;7.90;;
9330;SDS011;4704;50.470;12.072;2022-12-11T12:11:22;9.38;;;7.57;;
9330;SDS011;4704;50.470;12.072;2022-12-11T12:13:54;7.63;;;6.80;;
9330;SDS011;4704;50.470;12.072;2022-12-11T12:16:27;8.00;;;6.63;;
9330;SDS011;4704;50.470;12.072;2022-12-11T12:18:58;7.80;;;6.28;;
9330;SDS011;4704;50.470;12.072;2022-12-11T12:21:29;8.90;;;6.88;;
9330;SDS011;4704;50.470;12.072;2022-12-11T12:24:07;7.60;;;6.35;;
9330;SDS011;4704;50.470;12.072;2022-12-11T12:26:38;7.30;;;6.15;;
9330;SDS011;4704;50.470;12.072;2022-12-11T12:29:11;6.82;;;5.70;;
9330;SDS011;4704;50.470;12.072;2022-12-11T12:31:44;6.82;;;6.03;;
9330;SDS011;4704;50.470;12.072;2022-12-11T12:34:16;7.35;;;6.38;;
9330;SDS011;4704;50.470;12.072;2022-12-11T12:36:49;7.88;;;6.20;;
9330;SDS011;4704;50.470;12.072;2022-12-11T12:39:24;5.97;;;5.38;;
9330;SDS011;4704;50.470;12.072;2022-12-11T12:41:54;7.15;;;6.28;;
9330;SDS011;4704;50.470;12.072;2022-12-11T12:44:23;7.38;;;6.68;;
9330;SDS011;4704;50.470;12.072;2022-12-11T12:46:55;8.30;;;6.53;;
9330;SDS011;4704;50.470;12.072;2022-12-11T12:49:34;6.53;;;5.80;;
9330;SDS011;4704;50.470;12.072;2022-12-11T12:52:03;6.75;;;6.00;;
9330;SDS011;4704;50.470;12.072;2022-12-11T12:54:32;7.50;;;5.78;;
9330;SDS011;4704;50.470;12.072;2022-12-11T12:57:01;6.43;;;5.43;;
9330;SDS011;4704;50.470;12.072;2022-12-11T12:59:29;7.32;;;5.78;;
9330;SDS011;4704;50.470;12.072;2022-12-11T13:01:59;6.35;;;5.57;;
9330;SDS011;4704;50.470;12.072;2022-12-11T13:04:28;6.28;;;5.05;;
9330;SDS011;4704;50.470;12.072;2022-12-11T13:07:09;6.20;;;5.60;;
9330;SDS011;4704;50.470;12.072;2022-12-11T13:09:38;6.43;;;5.10;;
9330;SDS011;4704;50.470;12.072;2022-12-11T13:12:11;5.95;;;5.35;;
9330;SDS011;4704;50.470;12.072;2022-12-11T13:14:38;7.30;;;4.90;;
9330;SDS011;4704;50.470;12.072;2022-12-11T13:17:07;7.07;;;5.10;;
9330;SDS011;4704;50.470;12.072;2022-12-11T13:19:49;6.63;;;4.65;;
9330;SDS011;4704;50.470;12.072;2022-12-11T13:22:22;7.28;;;4.60;;
9330;SDS011;4704;50.470;12.072;2022-12-11T13:24:57;7.30;;;4.75;;
9330;SDS011;4704;50.470;12.072;2022-12-11T13:27:35;9.07;;;4.47;;
9330;SDS011;4704;50.470;12.072;2022-12-11T13:30:03;6.10;;;4.85;;
9330;SDS011;4704;50.470;12.072;2022-12-11T13:32:33;6.50;;;4.35;;
9330;SDS011;4704;50.470;12.072;2022-12-11T13:35:03;6.38;;;4.40;;
9330;SDS011;4704;50.470;12.072;2022-12-11T13:37:32;6.90;;;4.50;;
9330;SDS011;4704;50.470;12.072;2022-12-11T13:40:04;5.85;;;4.70;;
9330;SDS011;4704;50.470;12.072;2022-12-11T13:42:34;4.88;;;3.72;;
9330;SDS011;4704;50.470;12.072;2022-12-11T13:45:02;6.70;;;4.50;;
9330;SDS011;4704;50.470;12.072;2022-12-11T13:47:30;5.60;;;4.55;;
9330;SDS011;4704;50.470;12.072;2022-12-11T13:50:10;5.32;;;4.30;;
9330;SDS011;4704;50.470;12.072;2022-12-11T13:52:38;4.60;;;4.18;;
9330;SDS011;4704;50.470;12.072;2022-12-11T13:55:15;4.88;;;4.00;;
9330;SDS011;4704;50.470;12.072;2022-12-11T13:57:44;4.50;;;4.10;;
9330;SDS011;4704;50.470;12.072;2022-12-11T14:00:18;4.25;;;3.95;;
9330;SDS011;4704;50.470;12.072;2022-12-11T14:02:46;4.25;;;3.80;;
9330;SDS011;4704;50.470;12.072;2022-12-11T14:05:14;4.28;;;3.85;;
9330;SDS011;4704;50.470;12.072;2022-12-11T14:07:45;4.57;;;3.75;;
9330;SDS011;4704;50.470;12.072;2022-12-11T14:10:15;4.90;;;3.72;;
9330;SDS011;4704;50.470;12.072;2022-12-11T14:12:44;4.45;;;3.67;;
9330;SDS011;4704;50.470;12.072;2022-12-11T14:15:13;4.40;;;3.95;;
9330;SDS011;4704;50.470;12.072;2022-12-11T14:17:41;4.50;;;4.10;;
9330;SDS011;4704;50.470;12.072;2022-12-11T14:20:13;5.03;;;3.90;;
9330;SDS011;4704;50.470;12.072;2022-12-11T14:22:42;4.65;;;3.60;;
9330;SDS011;4704;50.470;12.072;2022-12-11T14:25:18;4.50;;;3.47;;
9330;SDS011;4704;50.470;12.072;2022-12-11T14:27:47;4.65;;;3.85;;
9330;SDS011;4704;50.470;12.072;2022-12-11T14:30:19;3.95;;;3.42;;
9330;SDS011;4704;50.470;12.072;2022-12-11T14:32:47;3.80;;;3.50;;
9330;SDS011;4704;50.470;12.072;2022-12-11T14:35:17;3.83;;;3.42;;
9330;SDS011;4704;50.470;12.072;2022-12-11T14:37:48;3.90;;;3.60;;
9330;SDS011;4704;50.470;12.072;2022-12-11T14:40:17;4.05;;;3.70;;
9330;SDS011;4704;50.470;12.072;2022-12-11T14:42:46;4.05;;;3.65;;
9330;SDS011;4704;50.470;12.072;2022-12-11T14:45:16;3.97;;;3.58;;
9330;SDS011;4704;50.470;12.072;2022-12-11T14:47:45;4.35;;;3.75;;
9330;SDS011;4704;50.470;12.072;2022-12-11T14:50:15;4.07;;;3.40;;
9330;SDS011;4704;50.470;12.072;2022-12-11T14:52:44;3.88;;;3.58;;
9330;SDS011;4704;50.470;12.072;2022-12-11T14:55:13;4.47;;;3.58;;
9330;SDS011;4704;50.470;12.072;2022-12-11T14:57:43;4.25;;;3.85;;
9330;SDS011;4704;50.470;12.072;2022-12-11T15:00:22;4.22;;;3.50;;
9330;SDS011;4704;50.470;12.072;2022-12-11T15:02:57;3.40;;;3.10;;
9330;SDS011;4704;50.470;12.072;2022-12-11T15:05:25;3.63;;;3.30;;
9330;SDS011;4704;50.470;12.072;2022-12-11T15:07:54;4.00;;;3.60;;
9330;SDS011;4704;50.470;12.072;2022-12-11T15:10:22;3.92;;;3.30;;
9330;SDS011;4704;50.470;12.072;2022-12-11T15:12:51;3.42;;;3.10;;
9330;SDS011;4704;50.470;12.072;2022-12-11T15:15:19;3.72;;;3.33;;